createdAt,value
2023-02-23T00:04:13.798Z,19.13
2023-02-23T00:09:24.576Z,19.48
2023-02-23T00:14:27.440Z,18.73
2023-02-23T00:19:28.741Z,19.80
2023-02-23T00:24:30.157Z,20.70
2023-02-23T00:29:38.396Z,20.43
2023-02-23T00:34:39.673Z,22.27
2023-02-23T00:39:41.052Z,21.67
2023-02-23T00:44:42.299Z,20.87
2023-02-23T00:49:44.914Z,20.20
2023-02-23T00:54:46.231Z,19.37
2023-02-23T00:59:47.482Z,19.33
2023-02-23T01:04:48.849Z,19.60
2023-02-23T01:09:50.095Z,19.53
2023-02-23T01:14:51.396Z,20.13
2023-02-23T01:19:52.636Z,20.73
2023-02-23T01:24:53.938Z,19.65
2023-02-23T01:29:55.213Z,19.15
2023-02-23T01:34:56.515Z,17.97
2023-02-23T01:39:57.798Z,19.10
2023-02-23T01:45:17.499Z,19.30
2023-02-23T01:50:19.778Z,19.85
2023-02-23T01:55:25.117Z,19.08
2023-02-23T02:00:26.560Z,19.00
2023-02-23T02:05:28.627Z,19.05
2023-02-23T02:10:55.704Z,17.73
2023-02-23T02:15:59.944Z,18.77
2023-02-23T02:21:07.440Z,19.42
2023-02-23T02:26:17.800Z,19.20
2023-02-23T02:31:31.469Z,19.00
2023-02-23T02:36:57.567Z,18.83
2023-02-23T02:42:08.535Z,18.52
2023-02-23T02:47:12.826Z,19.08
2023-02-23T02:52:14.043Z,18.60
2023-02-23T02:57:15.680Z,17.95
2023-02-23T03:02:37.237Z,18.03
2023-02-23T03:08:00.332Z,18.75
2023-02-23T03:13:28.359Z,18.92
2023-02-23T03:18:59.910Z,17.67
2023-02-23T03:24:29.633Z,18.75
2023-02-23T03:29:58.713Z,19.07
2023-02-23T03:35:22.608Z,18.27
2023-02-23T03:40:45.068Z,18.83
2023-02-23T03:46:06.716Z,18.47
2023-02-23T03:51:27.918Z,18.25
2023-02-23T03:56:49.899Z,17.90
2023-02-23T04:02:11.784Z,17.98
2023-02-23T04:07:33.270Z,18.88
2023-02-23T04:12:57.088Z,18.63
2023-02-23T04:17:58.694Z,18.05
2023-02-23T04:23:00.047Z,17.30
2023-02-23T04:28:01.325Z,17.90
2023-02-23T04:33:02.634Z,17.85
2023-02-23T04:38:03.948Z,18.23
2023-02-23T04:43:05.218Z,18.77
2023-02-23T04:48:06.531Z,17.17
2023-02-23T04:53:07.783Z,18.13
2023-02-23T04:58:13.519Z,18.27
2023-02-23T05:03:15.063Z,18.27
2023-02-23T05:08:16.354Z,18.00
2023-02-23T05:13:17.733Z,17.73
2023-02-23T05:18:19.053Z,17.50
2023-02-23T05:23:21.629Z,17.67
2023-02-23T05:28:22.937Z,16.87
2023-02-23T05:33:24.252Z,17.60
2023-02-23T05:38:26.029Z,17.07
2023-02-23T05:43:27.633Z,19.50
2023-02-23T05:48:29.098Z,18.02
2023-02-23T05:53:30.455Z,17.73
2023-02-23T05:58:31.748Z,17.08
2023-02-23T06:03:34.216Z,17.47
2023-02-23T06:08:35.500Z,15.73
2023-02-23T06:13:36.973Z,16.30
2023-02-23T06:18:38.267Z,15.97
2023-02-23T06:23:39.562Z,16.38
2023-02-23T06:28:40.876Z,16.60
2023-02-23T06:33:42.167Z,16.35
2023-02-23T06:38:44.917Z,16.42
2023-02-23T06:43:46.201Z,16.27
2023-02-23T06:48:47.551Z,17.55
2023-02-23T06:53:48.793Z,16.37
2023-02-23T06:58:50.116Z,18.35
2023-02-23T07:03:51.449Z,16.15
2023-02-23T07:08:52.725Z,17.00
2023-02-23T07:13:54.189Z,17.45
2023-02-23T07:18:55.548Z,16.47
2023-02-23T07:23:56.796Z,17.60
2023-02-23T07:28:58.132Z,17.17
2023-02-23T07:33:59.391Z,16.53
2023-02-23T07:39:00.910Z,15.65
2023-02-23T07:44:02.298Z,16.33
2023-02-23T07:49:03.710Z,16.45
2023-02-23T07:54:05.322Z,16.55
2023-02-23T07:59:06.597Z,15.80
2023-02-23T08:04:07.936Z,17.42
2023-02-23T08:09:10.639Z,17.27
2023-02-23T08:14:12.992Z,17.02
2023-02-23T08:19:14.331Z,16.60
2023-02-23T08:24:15.916Z,23.27
2023-02-23T08:29:17.302Z,15.32
2023-02-23T08:34:19.427Z,15.37
2023-02-23T08:39:21.255Z,15.57
2023-02-23T08:44:22.586Z,15.23
2023-02-23T08:49:24.508Z,14.50
2023-02-23T08:54:27.003Z,15.00
2023-02-23T08:59:28.419Z,12.73
2023-02-23T09:04:31.428Z,10.30
2023-02-23T09:09:34.055Z,10.45
2023-02-23T09:14:36.607Z,10.40
2023-02-23T09:19:37.845Z,9.93
2023-02-23T09:24:39.138Z,9.18
2023-02-23T09:29:44.483Z,9.50
2023-02-23T09:34:45.772Z,9.37
2023-02-23T09:39:48.759Z,9.38
2023-02-23T09:44:59.185Z,8.67
2023-02-23T09:50:02.681Z,7.87
2023-02-23T09:55:04.097Z,8.38
2023-02-23T10:00:31.730Z,7.05
2023-02-23T10:05:35.275Z,7.80
2023-02-23T10:10:40.395Z,6.80
2023-02-23T10:15:45.577Z,6.37
2023-02-23T10:20:53.689Z,5.97
2023-02-23T10:25:59.387Z,6.28
2023-02-23T10:31:01.280Z,6.60
2023-02-23T10:36:21.334Z,6.60
2023-02-23T10:41:22.679Z,6.78
2023-02-23T10:46:35.665Z,7.60
2023-02-23T10:51:38.372Z,7.10
2023-02-23T10:56:44.355Z,6.70
2023-02-23T11:02:00.998Z,8.43
2023-02-23T11:07:29.807Z,6.60
2023-02-23T11:12:37.076Z,8.02
2023-02-23T11:17:38.827Z,7.07
2023-02-23T11:22:41.344Z,7.40
2023-02-23T11:27:46.803Z,7.60
2023-02-23T11:32:50.908Z,6.80
2023-02-23T11:37:52.348Z,8.93
2023-02-23T11:42:59.686Z,7.22
2023-02-23T11:48:05.019Z,7.37
2023-02-23T11:53:11.224Z,7.60
2023-02-23T11:58:23.764Z,6.90
2023-02-23T12:03:26.311Z,6.73
2023-02-23T12:08:27.589Z,7.15
2023-02-23T12:13:34.111Z,7.50
2023-02-23T12:18:42.966Z,8.87
2023-02-23T12:23:48.686Z,7.28
2023-02-23T12:28:59.445Z,7.60
2023-02-23T12:34:02.428Z,6.57
2023-02-23T12:39:04.705Z,5.78
2023-02-23T12:44:33.172Z,6.77
2023-02-23T12:49:45.135Z,6.28
2023-02-23T12:54:49.479Z,6.35
2023-02-23T13:00:20.292Z,6.70
2023-02-23T13:05:30.216Z,6.70
2023-02-23T13:10:46.206Z,5.88
2023-02-23T13:16:00.257Z,5.90
2023-02-23T13:21:05.515Z,6.10
2023-02-23T13:26:16.189Z,5.67
2023-02-23T13:31:22.191Z,6.67
2023-02-23T13:36:24.159Z,6.32
2023-02-23T13:41:37.966Z,6.77
2023-02-23T13:46:49.877Z,6.30
2023-02-23T13:51:54.607Z,6.80
2023-02-23T13:56:56.719Z,6.17
2023-02-23T14:02:00.765Z,5.90
2023-02-23T14:07:04.116Z,5.47
2023-02-23T14:12:05.703Z,5.50
2023-02-23T14:17:12.042Z,5.37
2023-02-23T14:22:15.313Z,5.70
2023-02-23T14:27:38.337Z,5.90
2023-02-23T14:32:43.826Z,5.43
2023-02-23T14:37:54.517Z,5.88
2023-02-23T14:42:57.729Z,6.00
2023-02-23T14:48:02.915Z,6.03
2023-02-23T14:53:06.301Z,7.45
2023-02-23T14:58:23.828Z,6.27
2023-02-23T15:03:25.204Z,7.20
2023-02-23T15:08:27.839Z,6.03
2023-02-23T15:13:29.341Z,6.00
2023-02-23T15:18:38.034Z,6.10
2023-02-23T15:23:40.059Z,5.65
2023-02-23T15:28:41.594Z,5.10
2023-02-23T15:33:44.842Z,6.90
2023-02-23T15:38:47.310Z,6.20
2023-02-23T15:43:48.601Z,6.87
2023-02-23T15:48:51.115Z,6.77
2023-02-23T15:53:53.302Z,6.93
2023-02-23T15:59:01.917Z,7.40
2023-02-23T16:04:07.828Z,6.68
2023-02-23T16:09:19.829Z,6.68
2023-02-23T16:14:22.372Z,7.47
2023-02-23T16:19:25.797Z,8.60
2023-02-23T16:24:28.288Z,7.32
2023-02-23T16:29:41.584Z,9.27
2023-02-23T16:34:55.940Z,10.77
2023-02-23T16:39:57.219Z,22.17
2023-02-23T16:44:59.244Z,8.20
2023-02-23T16:50:04.865Z,8.88
2023-02-23T16:55:18.413Z,7.10
2023-02-23T17:00:24.672Z,7.37
2023-02-23T17:05:30.121Z,6.53
2023-02-23T17:10:32.954Z,7.40
2023-02-23T17:15:35.823Z,8.98
2023-02-23T17:20:37.137Z,8.68
2023-02-23T17:25:38.646Z,9.60
2023-02-23T17:30:44.459Z,8.98
2023-02-23T17:35:46.002Z,12.43
2023-02-23T17:40:48.678Z,11.93
2023-02-23T17:45:50.039Z,10.15
2023-02-23T17:51:05.479Z,10.63
2023-02-23T17:56:07.003Z,9.93
2023-02-23T18:01:11.211Z,8.48
2023-02-23T18:06:13.302Z,8.53
2023-02-23T18:11:17.354Z,9.65
2023-02-23T18:16:19.246Z,9.50
2023-02-23T18:21:21.572Z,10.13
2023-02-23T18:26:25.530Z,13.50
2023-02-23T18:31:30.339Z,12.63
2023-02-23T18:36:35.740Z,11.55
2023-02-23T18:41:37.025Z,13.47
2023-02-23T18:46:38.549Z,13.43
2023-02-23T18:51:41.694Z,15.23
2023-02-23T18:56:45.059Z,11.00
2023-02-23T19:01:47.931Z,10.95
2023-02-23T19:06:52.105Z,11.33
2023-02-23T19:11:53.643Z,13.23
2023-02-23T19:16:55.024Z,10.95
2023-02-23T19:21:58.633Z,11.17
2023-02-23T19:27:00.051Z,8.15
2023-02-23T19:32:01.489Z,8.93
2023-02-23T19:37:03.162Z,9.80
2023-02-23T19:42:04.606Z,11.80
2023-02-23T19:47:05.879Z,11.23
2023-02-23T19:52:07.211Z,11.00
2023-02-23T19:57:09.891Z,10.93
2023-02-23T20:02:11.396Z,13.32
2023-02-23T20:07:13.093Z,8.80
2023-02-23T20:12:14.451Z,11.47
2023-02-23T20:17:15.743Z,11.95
2023-02-23T20:22:17.124Z,7.90
2023-02-23T20:27:22.456Z,7.30
2023-02-23T20:32:24.016Z,6.68
2023-02-23T20:37:25.422Z,8.47
2023-02-23T20:42:28.267Z,8.65
2023-02-23T20:47:29.548Z,10.20
2023-02-23T20:52:31.225Z,9.60
2023-02-23T20:57:33.404Z,9.23
2023-02-23T21:02:35.229Z,10.23
2023-02-23T21:07:36.580Z,10.40
2023-02-23T21:12:37.870Z,11.43
2023-02-23T21:17:40.416Z,10.40
2023-02-23T21:22:43.065Z,11.20
2023-02-23T21:27:44.887Z,10.60
2023-02-23T21:32:47.046Z,11.68
2023-02-23T21:37:50.081Z,14.23
2023-02-23T21:42:51.452Z,15.93
2023-02-23T21:47:52.807Z,13.60
2023-02-23T21:52:56.025Z,13.93
2023-02-23T21:57:58.083Z,12.52
2023-02-23T22:02:59.684Z,18.90
2023-02-23T22:08:00.947Z,14.82
2023-02-23T22:13:02.968Z,13.65
2023-02-23T22:18:04.311Z,14.37
2023-02-23T22:23:05.556Z,13.40
2023-02-23T22:28:08.985Z,13.97
2023-02-23T22:33:11.590Z,12.18
2023-02-23T22:38:13.912Z,11.07
2023-02-23T22:43:21.831Z,10.30
2023-02-23T22:48:23.845Z,10.32
2023-02-23T22:53:25.590Z,11.13
2023-02-23T22:58:26.838Z,10.55
2023-02-23T23:03:28.886Z,10.18
2023-02-23T23:08:31.178Z,8.60
2023-02-23T23:13:37.213Z,11.63
2023-02-23T23:18:43.648Z,15.53
2023-02-23T23:23:45.105Z,10.88
2023-02-23T23:28:48.095Z,9.35
2023-02-23T23:33:51.530Z,10.90
2023-02-23T23:38:56.390Z,10.77
2023-02-23T23:43:58.784Z,12.50
2023-02-23T23:49:02.283Z,11.10
2023-02-23T23:54:04.168Z,10.75
2023-02-23T23:59:07.269Z,11.30
